Argonne, Minnesota
Current Conditions -  °F | °C
As of 8:06 AM on Thursday 27 Nov 2014 (Local Time) from KLVN Reporting Station
Clear Clear  
Wind Chill: -29°   Ceiling: Unl
Heat Index: -21°   Visibility: 10mi
Dew Point: -23°   Wind: 7mph
Humidity: 84%   Direction: 280°W
Pressure: 30.49"   Gusts: NA
Location:  44.6349°N, 93.283°W
Report Text: KLVN 271406Z AUTO 28006KT 10SM CLR M21/M23 A3049 RMK AO2
Loading
Personal Weather Stations






























Interactive Weather Map New forecast layout! Learn more

10-Day Weather Forecast

Advertisements
Track Severe Weather on mobile